createdAt,value
2022-09-13T00:00:12.898Z,5.40
2022-09-13T00:05:15.801Z,5.03
2022-09-13T00:10:18.514Z,4.80
2022-09-13T00:15:22.442Z,6.88
2022-09-13T00:20:26.504Z,6.57
2022-09-13T00:25:29.179Z,6.95
2022-09-13T00:30:33.446Z,6.45
2022-09-13T00:35:35.886Z,6.40
2022-09-13T00:40:39.118Z,6.05
2022-09-13T00:45:43.161Z,5.10
2022-09-13T00:50:51.941Z,7.72
2022-09-13T00:55:59.041Z,7.28
2022-09-13T01:01:08.963Z,5.35
2022-09-13T01:06:15.245Z,6.80
2022-09-13T01:11:25.119Z,7.45
2022-09-13T01:16:29.104Z,6.15
2022-09-13T01:22:10.882Z,5.53
2022-09-13T01:27:38.361Z,5.63
2022-09-13T01:33:06.734Z,5.78
2022-09-13T01:38:26.782Z,6.82
2022-09-13T01:43:43.945Z,7.03
2022-09-13T01:48:56.346Z,7.35
2022-09-13T01:54:14.431Z,6.32
2022-09-13T01:59:23.893Z,9.82
2022-09-13T02:04:35.295Z,7.13
2022-09-13T02:09:42.765Z,8.55
2022-09-13T02:14:49.820Z,6.88
2022-09-13T02:19:58.519Z,8.77
2022-09-13T02:25:06.066Z,5.95
2022-09-13T02:30:11.154Z,5.72
2022-09-13T02:35:20.385Z,6.55
2022-09-13T02:40:34.419Z,5.95
2022-09-13T02:45:46.597Z,6.63
2022-09-13T02:51:01.047Z,5.75
2022-09-13T02:56:12.336Z,5.95
2022-09-13T03:01:16.155Z,6.75
2022-09-13T03:06:25.306Z,8.85
2022-09-13T03:11:42.489Z,7.63
2022-09-13T03:17:00.898Z,6.13
2022-09-13T03:22:28.910Z,7.82
2022-09-13T03:27:40.714Z,9.20
2022-09-13T03:32:51.746Z,7.05
2022-09-13T03:37:59.269Z,5.90
2022-09-13T03:43:09.441Z,9.48
2022-09-13T03:48:13.515Z,7.45
2022-09-13T03:53:22.979Z,8.82
2022-09-13T03:58:27.368Z,6.50
2022-09-13T04:08:35.846Z,7.40
2022-09-13T04:13:38.981Z,6.93
2022-09-13T04:18:41.507Z,8.98
2022-09-13T04:23:45.528Z,8.23
2022-09-13T04:28:48.080Z,7.07
2022-09-13T04:33:50.765Z,7.88
2022-09-13T04:38:54.810Z,7.15
2022-09-13T04:43:57.535Z,11.75
2022-09-13T04:49:00.132Z,6.90
2022-09-13T04:54:04.434Z,9.50
2022-09-13T04:59:07.002Z,11.30
2022-09-13T05:04:10.658Z,8.35
2022-09-13T05:09:16.671Z,9.13
2022-09-13T05:14:20.979Z,8.38
2022-09-13T05:19:24.524Z,9.00
2022-09-13T05:24:28.646Z,8.43
2022-09-13T05:29:31.105Z,7.80
2022-09-13T05:34:33.575Z,7.55
2022-09-13T05:40:00.404Z,9.05
2022-09-13T05:45:00.110Z,7.17
2022-09-13T05:50:10.438Z,8.60
2022-09-13T05:55:16.182Z,6.57
2022-09-13T06:00:18.867Z,7.22
2022-09-13T06:05:21.353Z,7.68
2022-09-13T06:10:25.321Z,6.32
2022-09-13T06:15:27.769Z,9.15
2022-09-13T06:20:31.164Z,7.50
2022-09-13T06:25:35.050Z,8.00
2022-09-13T06:30:38.075Z,7.20
2022-09-13T06:35:40.540Z,7.97
2022-09-13T06:40:44.826Z,8.38
2022-09-13T06:50:51.910Z,9.18
2022-09-13T06:56:03.607Z,9.38
2022-09-13T07:01:12.635Z,7.80
2022-09-13T07:06:21.512Z,7.90
2022-09-13T07:11:29.882Z,8.73
2022-09-13T07:16:33.868Z,8.38
2022-09-13T07:21:36.744Z,7.45
2022-09-13T07:26:40.527Z,6.88
2022-09-13T07:31:45.450Z,9.00
2022-09-13T07:36:49.271Z,7.70
2022-09-13T07:41:53.830Z,8.98
2022-09-13T07:46:56.939Z,7.70
2022-09-13T07:51:59.429Z,9.85
2022-09-13T07:57:03.309Z,7.78
2022-09-13T08:02:05.917Z,8.98
2022-09-13T08:07:08.475Z,8.63
2022-09-13T08:12:12.331Z,8.85
2022-09-13T08:17:14.973Z,9.23
2022-09-13T08:22:17.523Z,7.85
2022-09-13T08:27:21.311Z,7.30
2022-09-13T08:32:23.826Z,6.90
2022-09-13T08:37:26.372Z,5.60
2022-09-13T08:42:47.249Z,6.03
2022-09-13T08:47:57.421Z,6.07
2022-09-13T08:53:09.638Z,6.28
2022-09-13T08:58:31.062Z,5.55
2022-09-13T09:03:42.853Z,7.75
2022-09-13T09:08:50.704Z,5.53
2022-09-13T09:13:58.697Z,5.68
2022-09-13T09:19:10.934Z,7.10
2022-09-13T09:24:19.938Z,5.50
2022-09-13T09:29:27.030Z,5.75
2022-09-13T09:34:43.793Z,5.63
2022-09-13T09:39:46.625Z,5.70
2022-09-13T09:44:53.377Z,5.75
2022-09-13T09:50:10.774Z,5.15
2022-09-13T09:55:21.180Z,6.07
2022-09-13T10:00:28.375Z,6.70
2022-09-13T10:05:32.455Z,5.97
2022-09-13T10:10:41.691Z,6.53
2022-09-13T10:15:55.408Z,7.05
2022-09-13T10:21:04.217Z,4.78
2022-09-13T10:26:12.242Z,4.50
2022-09-13T10:31:17.973Z,5.03
2022-09-13T10:36:50.722Z,8.30
2022-09-13T10:41:52.051Z,4.75
2022-09-13T10:46:56.437Z,7.75
2022-09-13T10:51:58.900Z,6.55
2022-09-13T10:57:01.839Z,7.40
2022-09-13T11:02:36.294Z,6.00
2022-09-13T11:12:55.889Z,5.68
2022-09-13T11:18:25.898Z,5.68
2022-09-13T11:23:42.996Z,4.60
2022-09-13T11:28:57.742Z,5.85
2022-09-13T11:34:13.001Z,4.70
2022-09-13T11:39:28.064Z,3.90
2022-09-13T11:44:52.169Z,3.45
2022-09-13T11:50:11.132Z,3.03
2022-09-13T11:55:18.863Z,4.30
2022-09-13T12:00:23.950Z,2.40
2022-09-13T12:05:32.976Z,2.83
2022-09-13T12:10:45.783Z,4.53
2022-09-13T12:15:52.880Z,2.38
2022-09-13T12:21:00.615Z,3.55
2022-09-13T12:26:09.972Z,3.42
2022-09-13T12:31:17.001Z,4.47
2022-09-13T12:36:57.380Z,3.72
2022-09-13T12:42:27.418Z,2.33
2022-09-13T12:47:55.218Z,1.95
2022-09-13T12:53:10.738Z,2.28
2022-09-13T12:58:30.325Z,2.25
2022-09-13T13:03:38.356Z,1.85
2022-09-13T13:08:51.613Z,2.53
2022-09-13T13:13:59.113Z,2.00
2022-09-13T13:19:08.670Z,1.92
2022-09-13T13:24:47.112Z,4.22
2022-09-13T13:30:36.037Z,1.95
2022-09-13T13:35:38.729Z,1.88
2022-09-13T13:40:42.776Z,2.03
2022-09-13T13:45:59.964Z,1.63
2022-09-13T13:51:27.329Z,1.33
2022-09-13T13:56:48.095Z,1.35
2022-09-13T14:01:55.360Z,1.65
2022-09-13T14:07:18.980Z,3.47
2022-09-13T14:12:47.657Z,2.15
2022-09-13T14:18:22.457Z,1.42
2022-09-13T14:23:25.185Z,22.20
2022-09-13T14:28:29.657Z,1.80
2022-09-13T14:33:36.226Z,2.08
2022-09-13T14:38:38.942Z,3.20
2022-09-13T14:43:43.593Z,2.73
2022-09-13T14:48:51.525Z,1.35
2022-09-13T14:53:58.188Z,2.30
2022-09-13T14:59:06.669Z,1.67
2022-09-13T15:04:09.233Z,1.98
2022-09-13T15:09:18.609Z,2.50
2022-09-13T15:14:28.207Z,1.83
2022-09-13T15:19:37.667Z,3.45
2022-09-13T15:24:44.957Z,3.90
2022-09-13T15:29:53.995Z,2.15
2022-09-13T15:34:58.429Z,1.98
2022-09-13T15:40:14.385Z,1.45
2022-09-13T15:45:19.709Z,2.03
2022-09-13T15:50:26.911Z,2.15
2022-09-13T15:55:29.774Z,1.50
2022-09-13T16:00:33.768Z,1.50
2022-09-13T16:05:36.878Z,2.15
2022-09-13T16:10:39.658Z,1.75
2022-09-13T16:15:44.150Z,1.60
2022-09-13T16:20:46.767Z,1.85
2022-09-13T16:25:50.213Z,1.35
2022-09-13T16:30:54.737Z,2.22
2022-09-13T16:36:02.008Z,1.90
2022-09-13T16:41:07.189Z,4.53
2022-09-13T16:46:13.502Z,2.47
2022-09-13T16:51:16.374Z,5.80
2022-09-13T16:56:21.569Z,4.30
2022-09-13T17:01:27.455Z,6.00
2022-09-13T17:06:30.456Z,3.63
2022-09-13T17:11:38.406Z,5.40
2022-09-13T17:16:45.046Z,3.72
2022-09-13T17:21:48.695Z,3.53
2022-09-13T17:26:51.356Z,5.38
2022-09-13T17:31:55.166Z,4.13
2022-09-13T17:42:00.231Z,8.38
2022-09-13T17:47:04.254Z,4.00
2022-09-13T17:52:08.175Z,7.18
2022-09-13T17:57:11.861Z,4.72
2022-09-13T18:02:16.202Z,6.90
2022-09-13T18:07:19.165Z,8.00
2022-09-13T18:12:21.832Z,5.30
2022-09-13T18:17:25.745Z,7.43
2022-09-13T18:27:30.725Z,6.32
2022-09-13T18:32:34.646Z,7.32
2022-09-13T18:42:41.008Z,12.63
2022-09-13T18:47:45.039Z,6.38
2022-09-13T18:52:47.575Z,5.18
2022-09-13T18:57:49.995Z,9.07
2022-09-13T19:03:11.253Z,6.82
2022-09-13T19:08:14.573Z,5.45
2022-09-13T19:13:17.188Z,9.07
2022-09-13T19:18:21.097Z,6.32
2022-09-13T19:23:33.779Z,6.57
2022-09-13T19:28:47.820Z,7.30
2022-09-13T19:33:52.178Z,9.23
2022-09-13T19:38:57.023Z,7.43
2022-09-13T19:44:01.717Z,7.97
2022-09-13T19:49:06.947Z,8.80
2022-09-13T19:54:12.316Z,8.32
2022-09-13T19:59:19.728Z,8.75
2022-09-13T20:04:25.530Z,10.32
2022-09-13T20:09:28.216Z,5.97
2022-09-13T20:14:34.811Z,10.18
2022-09-13T20:19:43.525Z,6.03
2022-09-13T20:24:48.736Z,7.72
2022-09-13T20:29:51.696Z,8.35
2022-09-13T20:34:55.666Z,6.28
2022-09-13T20:40:03.185Z,9.15
2022-09-13T20:45:07.452Z,6.80
2022-09-13T20:50:12.209Z,7.82
2022-09-13T20:55:15.745Z,9.32
2022-09-13T21:00:18.307Z,6.37
2022-09-13T21:05:22.102Z,6.68
2022-09-13T21:10:26.126Z,7.07
2022-09-13T21:15:28.608Z,7.90
2022-09-13T21:20:33.995Z,13.40
2022-09-13T21:25:37.269Z,9.50
2022-09-13T21:30:40.958Z,10.15
2022-09-13T21:35:44.977Z,10.48
2022-09-13T21:41:00.033Z,7.43
2022-09-13T21:46:04.747Z,8.20
2022-09-13T21:51:11.586Z,7.53
2022-09-13T21:56:16.720Z,7.88
2022-09-13T22:01:22.535Z,9.70
2022-09-13T22:06:31.354Z,13.63
2022-09-13T22:11:38.474Z,8.60
2022-09-13T22:16:43.377Z,11.05
2022-09-13T22:21:49.053Z,10.65
2022-09-13T22:26:53.173Z,9.30
2022-09-13T22:31:55.838Z,7.50
2022-09-13T22:37:02.965Z,6.93
2022-09-13T22:42:05.996Z,8.95
2022-09-13T22:47:09.279Z,9.65
2022-09-13T22:52:13.258Z,9.40
2022-09-13T22:57:15.664Z,9.85
2022-09-13T23:02:18.126Z,10.35
2022-09-13T23:07:21.930Z,10.57
2022-09-13T23:12:24.507Z,13.02
2022-09-13T23:17:27.172Z,12.07
2022-09-13T23:22:31.186Z,10.95
2022-09-13T23:27:33.636Z,12.48
2022-09-13T23:32:36.067Z,13.50
2022-09-13T23:37:40.168Z,18.85
2022-09-13T23:42:42.780Z,12.18
2022-09-13T23:47:45.310Z,14.63
2022-09-13T23:52:49.396Z,12.73
2022-09-13T23:57:51.860Z,17.17
